createdAt,value
2018-01-25T00:00:21.468Z,100120.19
2018-01-25T00:01:23.945Z,100110.30
2018-01-25T00:02:26.408Z,100118.80
2018-01-25T00:03:28.874Z,100117.95
2018-01-25T00:04:31.346Z,100115.40
2018-01-25T00:05:33.826Z,100114.99
2018-01-25T00:06:36.283Z,100113.27
2018-01-25T00:07:38.753Z,100114.99
2018-01-25T00:08:41.228Z,100115.72
2018-01-25T00:09:43.704Z,100111.91
2018-01-25T00:10:46.167Z,100113.59
2018-01-25T00:11:48.669Z,100109.78
2018-01-25T00:12:51.135Z,100101.43
2018-01-25T00:13:53.608Z,100106.41
2018-01-25T00:14:56.067Z,100101.36
2018-01-25T00:15:58.540Z,100107.34
2018-01-25T00:17:01.042Z,100097.97
2018-01-25T00:18:03.513Z,100102.65
2018-01-25T00:19:05.997Z,100097.97
2018-01-25T00:20:08.467Z,100110.67
2018-01-25T00:21:10.941Z,100097.55
2018-01-25T00:22:14.367Z,100111.57
2018-01-25T00:23:16.853Z,100107.11
2018-01-25T00:24:19.314Z,100106.97
2018-01-25T00:25:21.789Z,100108.88
2018-01-25T00:26:24.271Z,100106.98
2018-01-25T00:27:26.748Z,100103.89
2018-01-25T00:28:29.225Z,100105.91
2018-01-25T00:29:31.686Z,100109.58
2018-01-25T00:30:34.222Z,100103.73
2018-01-25T00:31:36.702Z,100103.67
2018-01-25T00:32:39.181Z,100101.44
2018-01-25T00:33:41.651Z,100102.30
2018-01-25T00:34:44.128Z,100101.44
2018-01-25T00:35:46.589Z,100110.48
2018-01-25T00:36:49.052Z,100101.13
2018-01-25T00:37:51.528Z,100103.69
2018-01-25T00:38:54.000Z,100105.70
2018-01-25T00:39:56.466Z,100104.00
2018-01-25T00:40:58.949Z,100101.83
2018-01-25T00:42:01.418Z,100098.78
2018-01-25T00:43:03.880Z,100104.25
2018-01-25T00:44:06.343Z,100108.76
2018-01-25T00:45:08.807Z,100108.42
2018-01-25T00:46:11.271Z,100111.41
2018-01-25T00:47:13.744Z,100110.50
2018-01-25T00:48:16.216Z,100102.50
2018-01-25T00:49:18.674Z,100110.83
2018-01-25T00:50:21.148Z,100106.95
2018-01-25T00:51:23.622Z,100104.75
2018-01-25T00:52:26.084Z,100107.48
2018-01-25T00:53:28.538Z,100107.25
2018-01-25T00:54:31.017Z,100115.33
2018-01-25T00:55:33.488Z,100113.03
2018-01-25T00:56:35.955Z,100111.87
2018-01-25T00:57:38.425Z,100115.34
2018-01-25T00:58:40.894Z,100107.63
2018-01-25T00:59:43.363Z,100119.23
2018-01-25T01:00:45.823Z,100115.84
2018-01-25T01:01:48.301Z,100111.67
2018-01-25T01:02:50.759Z,100115.84
2018-01-25T01:03:53.226Z,100103.84
2018-01-25T01:04:55.708Z,100109.72
2018-01-25T01:05:58.171Z,100112.27
2018-01-25T01:07:00.635Z,100113.42
2018-01-25T01:08:03.145Z,100111.56
2018-01-25T01:09:05.606Z,100112.16
2018-01-25T01:10:08.082Z,100101.25
2018-01-25T01:11:10.559Z,100109.61
2018-01-25T01:12:13.028Z,100110.82
2018-01-25T01:13:15.509Z,100111.13
2018-01-25T01:14:17.992Z,100111.13
2018-01-25T01:15:20.455Z,100105.85
2018-01-25T01:16:22.942Z,100100.02
2018-01-25T01:17:25.420Z,100100.45
2018-01-25T01:18:27.896Z,100102.14
2018-01-25T01:19:30.358Z,100103.78
2018-01-25T01:20:32.831Z,100097.30
2018-01-25T01:21:35.304Z,100103.17
2018-01-25T01:22:37.794Z,100102.33
2018-01-25T01:23:40.279Z,100120.61
2018-01-25T01:24:42.791Z,100135.28
2018-01-25T01:25:45.261Z,100152.00
2018-01-25T01:26:47.729Z,100159.39
2018-01-25T01:27:50.378Z,100163.88
2018-01-25T01:28:52.854Z,100156.73
2018-01-25T01:29:55.319Z,100165.20
2018-01-25T01:30:57.801Z,100163.08
2018-01-25T01:32:00.258Z,100167.81
2018-01-25T01:33:02.757Z,100156.89
2018-01-25T01:34:05.262Z,100167.72
2018-01-25T01:35:07.733Z,100171.40
2018-01-25T01:36:10.186Z,100170.64
2018-01-25T01:37:12.669Z,100177.97
2018-01-25T01:38:15.122Z,100173.27
2018-01-25T01:39:17.640Z,100178.70
2018-01-25T01:40:20.094Z,100184.77
2018-01-25T01:41:22.560Z,100179.99
2018-01-25T01:42:25.029Z,100189.15
2018-01-25T01:43:27.486Z,100188.99
2018-01-25T01:44:30.036Z,100190.48
2018-01-25T01:45:32.508Z,100167.41
2018-01-25T01:46:34.976Z,100186.27
2018-01-25T01:47:37.460Z,100194.93
2018-01-25T01:48:39.918Z,100193.81
2018-01-25T01:49:42.409Z,100186.48
2018-01-25T01:50:44.870Z,100188.44
2018-01-25T01:51:47.331Z,100199.05
2018-01-25T01:52:49.800Z,100191.36
2018-01-25T01:53:52.273Z,100185.08
2018-01-25T01:54:54.764Z,100185.54
2018-01-25T01:55:57.228Z,100198.69
2018-01-25T01:56:59.696Z,100207.05
2018-01-25T01:58:02.171Z,100202.60
2018-01-25T01:59:04.626Z,100198.02
2018-01-25T02:00:07.142Z,100200.09
2018-01-25T02:01:09.613Z,100204.45
2018-01-25T02:02:12.066Z,100201.61
2018-01-25T02:03:14.541Z,100203.47
2018-01-25T02:04:17.013Z,100212.35
2018-01-25T02:05:19.495Z,100213.19
2018-01-25T02:06:21.959Z,100209.45
2018-01-25T02:07:24.413Z,100212.95
2018-01-25T02:08:26.867Z,100208.54
2018-01-25T02:09:29.318Z,100206.58
2018-01-25T02:10:31.790Z,100213.54
2018-01-25T02:11:34.268Z,100210.95
2018-01-25T02:12:36.726Z,100211.48
2018-01-25T02:13:39.197Z,100211.98
2018-01-25T02:14:41.672Z,100209.97
2018-01-25T02:15:44.156Z,100214.15
2018-01-25T02:16:46.642Z,100215.72
2018-01-25T02:17:49.115Z,100218.91
2018-01-25T02:18:51.584Z,100214.67
2018-01-25T02:19:54.053Z,100211.75
2018-01-25T02:20:56.529Z,100210.87
2018-01-25T02:21:58.992Z,100208.20
2018-01-25T02:23:01.449Z,100207.22
2018-01-25T02:24:03.925Z,100207.72
2018-01-25T02:25:06.402Z,100210.41
2018-01-25T02:26:08.878Z,100199.51
2018-01-25T02:27:11.335Z,100200.53
2018-01-25T02:28:13.921Z,100195.09
2018-01-25T02:29:16.396Z,100206.22
2018-01-25T02:30:18.869Z,100205.66
2018-01-25T02:31:21.359Z,100211.11
2018-01-25T02:32:23.846Z,100218.12
2018-01-25T02:33:26.317Z,100221.45
2018-01-25T02:34:28.775Z,100223.87
2018-01-25T02:35:31.250Z,100228.38
2018-01-25T02:36:33.730Z,100226.31
2018-01-25T02:37:36.208Z,100228.21
2018-01-25T02:38:38.667Z,100229.77
2018-01-25T02:39:41.123Z,100225.39
2018-01-25T02:40:43.597Z,100226.69
2018-01-25T02:41:46.097Z,100223.21
2018-01-25T02:42:48.569Z,100221.36
2018-01-25T02:43:51.027Z,100219.33
2018-01-25T02:44:53.507Z,100222.66
2018-01-25T02:45:55.980Z,100222.38
2018-01-25T02:46:58.459Z,100228.22
2018-01-25T02:48:00.922Z,100221.30
2018-01-25T02:49:03.397Z,100232.50
2018-01-25T02:50:05.868Z,100231.91
2018-01-25T02:51:08.337Z,100232.41
2018-01-25T02:52:10.818Z,100233.78
2018-01-25T02:53:13.290Z,100237.38
2018-01-25T02:54:15.742Z,100237.20
2018-01-25T02:55:18.195Z,100233.80
2018-01-25T02:56:20.679Z,100234.71
2018-01-25T02:57:23.158Z,100228.09
2018-01-25T02:58:25.628Z,100230.61
2018-01-25T02:59:28.088Z,100237.89
2018-01-25T03:00:30.556Z,100234.28
2018-01-25T03:01:33.011Z,100235.93
2018-01-25T03:02:35.525Z,100238.75
2018-01-25T03:03:37.990Z,100245.38
2018-01-25T03:04:40.450Z,100245.38
2018-01-25T03:05:42.906Z,100245.19
2018-01-25T03:06:45.368Z,100245.73
2018-01-25T03:07:47.864Z,100243.67
2018-01-25T03:08:50.321Z,100238.70
2018-01-25T03:09:52.779Z,100243.78
2018-01-25T03:10:55.235Z,100244.31
2018-01-25T03:11:57.704Z,100246.63
2018-01-25T03:13:00.194Z,100248.19
2018-01-25T03:14:02.676Z,100245.91
2018-01-25T03:15:05.140Z,100244.36
2018-01-25T03:16:07.644Z,100247.94
2018-01-25T03:17:10.109Z,100244.06
2018-01-25T03:18:12.609Z,100248.14
2018-01-25T03:19:15.077Z,100246.74
2018-01-25T03:20:17.577Z,100246.37
2018-01-25T03:21:20.076Z,100251.72
2018-01-25T03:22:22.535Z,100248.59
2018-01-25T03:23:25.025Z,100251.44
2018-01-25T03:24:27.498Z,100261.46
2018-01-25T03:25:29.962Z,100260.27
2018-01-25T03:26:32.444Z,100257.66
2018-01-25T03:27:34.905Z,100258.28
2018-01-25T03:28:37.380Z,100255.83
2018-01-25T03:29:39.838Z,100257.79
2018-01-25T03:30:42.299Z,100258.30
2018-01-25T03:31:44.758Z,100262.48
2018-01-25T03:32:47.241Z,100260.63
2018-01-25T03:33:49.733Z,100261.67
2018-01-25T03:34:52.205Z,100265.02
2018-01-25T03:35:54.663Z,100261.86
2018-01-25T03:36:57.122Z,100266.84
2018-01-25T03:37:59.601Z,100263.50
2018-01-25T03:39:02.097Z,100264.98
2018-01-25T03:40:04.569Z,100265.77
2018-01-25T03:41:07.077Z,100262.50
2018-01-25T03:42:09.531Z,100260.70
2018-01-25T03:43:12.021Z,100261.37
2018-01-25T03:44:14.498Z,100255.63
2018-01-25T03:45:18.785Z,100256.22
2018-01-25T03:46:21.257Z,100252.12
2018-01-25T03:47:23.714Z,100255.14
2018-01-25T03:48:26.184Z,100258.97
2018-01-25T03:49:28.658Z,100263.78
2018-01-25T03:50:31.129Z,100260.47
2018-01-25T03:51:33.586Z,100266.97
2018-01-25T03:52:36.046Z,100261.35
2018-01-25T03:53:38.506Z,100259.52
2018-01-25T03:54:40.979Z,100249.34
2018-01-25T03:55:43.452Z,100249.63
2018-01-25T03:56:45.928Z,100246.50
2018-01-25T03:57:48.391Z,100251.63
2018-01-25T03:58:50.860Z,100248.61
2018-01-25T03:59:53.357Z,100248.64
2018-01-25T04:00:55.815Z,100253.72
2018-01-25T04:01:58.279Z,100259.97
2018-01-25T04:03:00.756Z,100262.73
2018-01-25T04:04:03.441Z,100267.77
2018-01-25T04:05:05.927Z,100263.19
2018-01-25T04:06:08.388Z,100265.58
2018-01-25T04:07:10.861Z,100263.57
2018-01-25T04:08:13.329Z,100272.73
2018-01-25T04:09:15.783Z,100262.19
2018-01-25T04:10:18.290Z,100265.92
2018-01-25T04:11:20.743Z,100271.19
2018-01-25T04:12:23.200Z,100267.44
2018-01-25T04:13:25.658Z,100264.84
2018-01-25T04:14:28.133Z,100267.21
2018-01-25T04:15:30.624Z,100272.03
2018-01-25T04:16:33.074Z,100276.11
2018-01-25T04:17:35.544Z,100275.92
2018-01-25T04:18:38.002Z,100284.23
2018-01-25T04:19:40.462Z,100282.81
2018-01-25T04:20:42.990Z,100283.81
2018-01-25T04:21:45.447Z,100286.00
2018-01-25T04:22:47.909Z,100287.87
2018-01-25T04:23:50.376Z,100291.60
2018-01-25T04:24:52.848Z,100300.98
2018-01-25T04:25:55.322Z,100301.53
2018-01-25T04:26:57.778Z,100302.92
2018-01-25T04:28:00.246Z,100297.44
2018-01-25T04:29:02.765Z,100297.69
2018-01-25T04:30:05.198Z,100298.68
2018-01-25T04:31:07.678Z,100297.95
2018-01-25T04:32:10.151Z,100296.48
2018-01-25T04:33:12.627Z,100296.17
2018-01-25T04:34:15.100Z,100297.41
2018-01-25T04:35:17.558Z,100298.35
2018-01-25T04:36:20.044Z,100298.23
2018-01-25T04:37:22.513Z,100303.77
2018-01-25T04:38:24.966Z,100305.63
2018-01-25T04:39:27.438Z,100309.63
2018-01-25T04:40:29.894Z,100305.23
2018-01-25T04:41:32.393Z,100310.37
2018-01-25T04:42:34.905Z,100309.55
2018-01-25T04:43:37.359Z,100308.75
2018-01-25T04:44:39.814Z,100308.82
2018-01-25T04:45:42.284Z,100307.17
2018-01-25T04:46:44.789Z,100299.03
2018-01-25T04:47:47.252Z,100301.32
2018-01-25T04:48:49.721Z,100292.28
2018-01-25T04:49:52.204Z,100286.62
2018-01-25T04:50:54.664Z,100288.67
2018-01-25T04:51:57.151Z,100285.91
2018-01-25T04:52:59.605Z,100288.16
2018-01-25T04:54:02.086Z,100294.95
2018-01-25T04:55:04.557Z,100293.26
2018-01-25T04:56:07.015Z,100289.21
2018-01-25T04:57:09.509Z,100291.36
2018-01-25T04:58:11.962Z,100288.39
2018-01-25T04:59:14.432Z,100292.26
2018-01-25T05:00:16.887Z,100291.16
2018-01-25T05:01:19.392Z,100287.88
2018-01-25T05:02:21.881Z,100289.93
2018-01-25T05:03:24.344Z,100294.73
2018-01-25T05:04:26.818Z,100292.98
2018-01-25T05:05:29.290Z,100291.93
2018-01-25T05:06:31.750Z,100292.02
2018-01-25T05:07:34.249Z,100295.92
2018-01-25T05:08:36.716Z,100291.95
2018-01-25T05:09:39.733Z,100284.53
2018-01-25T05:10:42.216Z,100284.29
2018-01-25T05:11:44.685Z,100285.97
2018-01-25T05:12:47.186Z,100286.53
2018-01-25T05:13:49.643Z,100280.03
2018-01-25T05:14:52.118Z,100276.50
2018-01-25T05:15:54.597Z,100266.95
2018-01-25T05:16:59.502Z,100272.13
2018-01-25T05:18:01.982Z,100271.88
2018-01-25T05:19:04.439Z,100267.22
2018-01-25T05:20:06.903Z,100266.22
2018-01-25T05:21:09.426Z,100269.09
2018-01-25T05:22:11.902Z,100271.94
2018-01-25T05:23:14.380Z,100269.67
2018-01-25T05:24:16.870Z,100260.34
2018-01-25T05:25:19.332Z,100257.83
2018-01-25T05:26:21.809Z,100263.00
2018-01-25T05:27:24.266Z,100263.61
2018-01-25T05:28:26.900Z,100265.22
2018-01-25T05:29:29.407Z,100268.83
2018-01-25T05:30:32.017Z,100270.36
2018-01-25T05:31:34.486Z,100270.59
2018-01-25T05:32:36.942Z,100277.58
2018-01-25T05:33:39.420Z,100273.84
2018-01-25T05:34:41.905Z,100265.78
2018-01-25T05:35:44.377Z,100266.89
2018-01-25T05:36:46.844Z,100258.86
2018-01-25T05:37:49.369Z,100257.01
2018-01-25T05:38:51.847Z,100257.30
2018-01-25T05:39:54.299Z,100260.61
2018-01-25T05:40:56.785Z,100251.94
2018-01-25T05:41:59.250Z,100257.35
2018-01-25T05:43:01.725Z,100258.81
2018-01-25T05:44:04.207Z,100256.66
2018-01-25T05:45:06.678Z,100252.74
2018-01-25T05:46:09.146Z,100248.13
2018-01-25T05:47:11.603Z,100245.35
2018-01-25T05:48:14.227Z,100254.79
2018-01-25T05:49:16.708Z,100250.80
2018-01-25T05:50:19.177Z,100262.12
2018-01-25T05:51:21.660Z,100259.36
2018-01-25T05:52:24.129Z,100260.72
2018-01-25T05:53:26.588Z,100261.27
2018-01-25T05:54:29.081Z,100262.17
2018-01-25T05:55:31.553Z,100254.34
2018-01-25T05:56:34.011Z,100260.97
2018-01-25T05:57:36.469Z,100251.00
2018-01-25T05:58:39.353Z,100232.48
2018-01-25T05:59:41.968Z,100234.30
2018-01-25T06:00:44.434Z,100240.77
2018-01-25T06:01:46.899Z,100246.77
2018-01-25T06:02:49.373Z,100249.19
2018-01-25T06:03:51.845Z,100251.27
2018-01-25T06:04:54.324Z,100257.78
2018-01-25T06:05:56.781Z,100255.09
2018-01-25T06:06:59.318Z,100251.62
2018-01-25T06:08:01.789Z,100254.17
2018-01-25T06:09:04.260Z,100258.88
2018-01-25T06:10:06.756Z,100267.50
2018-01-25T06:11:09.210Z,100272.54
2018-01-25T06:12:11.685Z,100285.84
2018-01-25T06:13:14.160Z,100283.63
2018-01-25T06:14:16.628Z,100274.59
2018-01-25T06:15:19.137Z,100272.50
2018-01-25T06:16:21.743Z,100278.41
2018-01-25T06:17:24.209Z,100278.89
2018-01-25T06:18:26.715Z,100283.89
2018-01-25T06:19:29.175Z,100286.61
2018-01-25T06:20:31.648Z,100277.14
2018-01-25T06:21:34.141Z,100271.42
2018-01-25T06:22:36.633Z,100277.14
2018-01-25T06:23:39.120Z,100271.31
2018-01-25T06:24:41.575Z,100284.05
2018-01-25T06:25:44.059Z,100284.83
2018-01-25T06:26:46.514Z,100295.70
2018-01-25T06:27:48.966Z,100291.67
2018-01-25T06:28:51.423Z,100288.30
2018-01-25T06:29:53.884Z,100278.72
2018-01-25T06:30:56.418Z,100282.77
2018-01-25T06:31:58.889Z,100275.45
2018-01-25T06:33:01.371Z,100276.20
2018-01-25T06:34:03.827Z,100270.87
2018-01-25T06:35:06.291Z,100281.69
2018-01-25T06:36:08.823Z,100290.65
2018-01-25T06:37:11.305Z,100289.30
2018-01-25T06:38:13.763Z,100287.17
2018-01-25T06:39:16.246Z,100282.80
2018-01-25T06:40:18.718Z,100274.53
2018-01-25T06:41:21.194Z,100278.67
2018-01-25T06:42:23.675Z,100275.38
2018-01-25T06:43:26.181Z,100278.05
2018-01-25T06:44:28.661Z,100281.77
2018-01-25T06:45:31.118Z,100282.95
2018-01-25T06:46:33.595Z,100286.77
2018-01-25T06:47:36.069Z,100281.77
2018-01-25T06:48:38.541Z,100287.59
2018-01-25T06:49:41.018Z,100284.84
2018-01-25T06:50:43.493Z,100274.95
2018-01-25T06:51:45.992Z,100262.61
2018-01-25T06:52:48.446Z,100263.89
2018-01-25T06:53:50.902Z,100258.33
2018-01-25T06:54:53.372Z,100265.59
2018-01-25T06:55:56.107Z,100269.20
2018-01-25T06:56:58.630Z,100265.50
2018-01-25T06:58:01.109Z,100268.20
2018-01-25T06:59:03.588Z,100272.00
2018-01-25T07:00:06.091Z,100271.23
2018-01-25T07:01:08.551Z,100269.45
2018-01-25T07:02:11.101Z,100270.86
2018-01-25T07:03:13.606Z,100277.81
2018-01-25T07:04:16.070Z,100277.32
2018-01-25T07:05:18.545Z,100281.85
2018-01-25T07:06:21.007Z,100279.86
2018-01-25T07:07:23.485Z,100282.98
2018-01-25T07:08:25.953Z,100287.28
2018-01-25T07:09:28.412Z,100282.91
2018-01-25T07:10:30.879Z,100284.80
2018-01-25T07:11:33.334Z,100287.20
2018-01-25T07:12:35.811Z,100286.25
2018-01-25T07:13:38.321Z,100287.00
2018-01-25T07:14:40.780Z,100285.35
2018-01-25T07:15:43.446Z,100287.52
2018-01-25T07:16:45.907Z,100286.25
2018-01-25T07:17:48.401Z,100286.93
2018-01-25T07:18:50.862Z,100290.84
2018-01-25T07:19:53.323Z,100291.34
2018-01-25T07:20:55.797Z,100290.91
2018-01-25T07:21:58.275Z,100287.52
2018-01-25T07:23:00.777Z,100285.98
2018-01-25T07:24:03.242Z,100291.66
2018-01-25T07:25:05.705Z,100287.68
2018-01-25T07:26:08.179Z,100286.34
2018-01-25T07:27:10.647Z,100283.95
2018-01-25T07:28:13.141Z,100287.86
2018-01-25T07:29:15.602Z,100285.39
2018-01-25T07:30:18.063Z,100284.72
2018-01-25T07:31:20.527Z,100282.55
2018-01-25T07:32:23.009Z,100279.82
2018-01-25T07:33:25.491Z,100288.14
2018-01-25T07:34:27.969Z,100287.02
2018-01-25T07:35:30.435Z,100294.64
2018-01-25T07:36:32.918Z,100290.31
2018-01-25T07:37:35.379Z,100294.56
2018-01-25T07:38:37.883Z,100298.42
2018-01-25T07:39:40.400Z,100296.31
2018-01-25T07:40:42.861Z,100297.31
2018-01-25T07:41:45.337Z,100296.45
2018-01-25T07:42:47.802Z,100304.94
2018-01-25T07:43:50.287Z,100300.51
2018-01-25T07:44:52.742Z,100301.98
2018-01-25T07:45:55.217Z,100292.90
2018-01-25T07:46:57.688Z,100290.71
2018-01-25T07:48:00.161Z,100298.60
2018-01-25T07:49:02.653Z,100296.56
2018-01-25T07:50:05.126Z,100297.98
2018-01-25T07:51:07.611Z,100292.38
2018-01-25T07:52:10.070Z,100297.80
2018-01-25T07:53:12.549Z,100296.61
2018-01-25T07:54:15.046Z,100300.70
2018-01-25T07:55:17.538Z,100303.23
2018-01-25T07:56:20.008Z,100299.08
2018-01-25T08:09:28.635Z,100295.22
2018-01-25T08:10:31.105Z,100294.77
2018-01-25T08:11:33.567Z,100293.33
2018-01-25T08:12:36.031Z,100295.63
2018-01-25T08:13:39.285Z,100297.89
2018-01-25T08:14:41.776Z,100295.52
2018-01-25T08:15:44.259Z,100292.58
2018-01-25T08:16:50.717Z,100297.07
2018-01-25T08:17:53.178Z,100294.97
2018-01-25T08:18:55.642Z,100294.19
2018-01-25T08:19:58.103Z,100292.35
2018-01-25T08:21:00.581Z,100298.75
2018-01-25T08:22:03.056Z,100307.77
2018-01-25T08:23:05.518Z,100309.61
2018-01-25T08:24:07.997Z,100314.42
2018-01-25T08:25:10.460Z,100311.42
2018-01-25T08:26:12.946Z,100313.44
2018-01-25T08:27:15.405Z,100314.20
2018-01-25T08:28:17.866Z,100316.61
2018-01-25T08:29:20.322Z,100316.96
2018-01-25T08:30:22.782Z,100319.05
2018-01-25T08:31:25.260Z,100320.84
2018-01-25T08:32:27.718Z,100321.69
2018-01-25T08:33:30.245Z,100330.97
2018-01-25T08:34:32.704Z,100330.63
2018-01-25T08:35:35.181Z,100329.13
2018-01-25T08:36:37.643Z,100326.86
2018-01-25T08:37:40.113Z,100324.57
2018-01-25T08:38:42.585Z,100316.62
2018-01-25T08:39:45.056Z,100313.83
2018-01-25T08:40:47.519Z,100321.66
2018-01-25T08:41:50.024Z,100319.20
2018-01-25T08:42:52.474Z,100318.74
2018-01-25T08:43:54.934Z,100323.77
2018-01-25T08:44:57.411Z,100319.31
2018-01-25T08:45:59.888Z,100317.41
2018-01-25T08:47:02.347Z,100313.00
2018-01-25T08:48:04.821Z,100317.64
2018-01-25T08:49:07.285Z,100316.94
2018-01-25T08:50:09.747Z,100316.05
2018-01-25T08:51:12.206Z,100312.54
2018-01-25T08:52:14.664Z,100313.58
2018-01-25T08:53:17.165Z,100307.59
2018-01-25T08:54:19.645Z,100306.66
2018-01-25T08:55:22.127Z,100302.50
2018-01-25T08:56:24.653Z,100304.94
2018-01-25T08:57:27.146Z,100305.02
2018-01-25T08:58:29.603Z,100306.88
2018-01-25T08:59:32.073Z,100306.82
2018-01-25T09:00:34.534Z,100307.55
2018-01-25T09:01:37.013Z,100310.97
2018-01-25T09:02:39.492Z,100305.20
2018-01-25T09:03:41.950Z,100300.23
2018-01-25T09:04:44.437Z,100307.14
2018-01-25T09:05:46.899Z,100307.33
2018-01-25T09:06:49.359Z,100305.27
2018-01-25T09:07:51.814Z,100306.72
2018-01-25T09:08:54.274Z,100311.30
2018-01-25T09:09:56.753Z,100311.30
2018-01-25T09:10:59.214Z,100312.87
2018-01-25T09:12:01.702Z,100316.20
2018-01-25T09:13:04.189Z,100312.48
2018-01-25T09:14:06.668Z,100312.03
2018-01-25T09:15:09.146Z,100314.59
2018-01-25T09:16:11.610Z,100312.48
2018-01-25T09:17:14.089Z,100318.19
2018-01-25T09:18:16.565Z,100313.70
2018-01-25T09:19:19.257Z,100314.00
2018-01-25T09:20:21.541Z,100318.13
2018-01-25T09:21:24.021Z,100322.88
2018-01-25T09:22:26.517Z,100320.88
2018-01-25T09:23:28.976Z,100324.36
2018-01-25T09:24:31.453Z,100321.31
2018-01-25T09:25:33.929Z,100324.23
2018-01-25T09:26:36.401Z,100325.95
2018-01-25T09:27:38.893Z,100327.61
2018-01-25T09:28:41.355Z,100324.58
2018-01-25T09:29:43.833Z,100325.95
2018-01-25T09:30:46.305Z,100323.34
2018-01-25T09:31:48.762Z,100321.23
2018-01-25T09:32:51.260Z,100314.44
2018-01-25T09:33:53.719Z,100324.75
2018-01-25T09:34:56.197Z,100323.02
2018-01-25T09:35:58.714Z,100316.84
2018-01-25T09:37:01.155Z,100317.81
2018-01-25T09:38:03.656Z,100316.30
2018-01-25T09:39:06.130Z,100323.31
2018-01-25T09:40:08.610Z,100321.70
2018-01-25T09:41:11.088Z,100316.47
2018-01-25T09:42:13.572Z,100323.25
2018-01-25T09:43:16.058Z,100321.61
2018-01-25T09:44:18.547Z,100317.35
2018-01-25T09:45:21.007Z,100318.41
2018-01-25T09:46:23.475Z,100321.97
2018-01-25T09:47:25.935Z,100319.16
2018-01-25T09:48:28.436Z,100320.10
2018-01-25T09:49:31.191Z,100321.77
2018-01-25T09:50:33.685Z,100323.12
2018-01-25T09:51:36.190Z,100319.78
2018-01-25T09:52:38.690Z,100320.52
2018-01-25T09:53:41.166Z,100330.78
2018-01-25T09:54:43.645Z,100329.15
2018-01-25T09:55:46.106Z,100332.52
2018-01-25T09:56:48.612Z,100332.75
2018-01-25T09:57:51.081Z,100330.43
2018-01-25T09:58:53.559Z,100326.50
2018-01-25T09:59:56.021Z,100326.83
2018-01-25T10:00:58.503Z,100329.43
2018-01-25T10:02:01.026Z,100328.16
2018-01-25T10:03:03.537Z,100321.09
2018-01-25T10:04:06.011Z,100326.36
2018-01-25T10:05:08.580Z,100332.68
2018-01-25T10:06:11.045Z,100326.20
2018-01-25T10:07:13.503Z,100332.77
2018-01-25T10:08:15.963Z,100339.83
2018-01-25T10:09:18.441Z,100337.52
2018-01-25T10:10:20.912Z,100333.13
2018-01-25T10:11:23.401Z,100342.58
2018-01-25T10:12:25.880Z,100332.68
2018-01-25T10:13:28.383Z,100334.44
2018-01-25T10:14:30.920Z,100337.41
2018-01-25T10:15:33.465Z,100331.70
2018-01-25T10:16:35.911Z,100338.22
2018-01-25T10:17:38.378Z,100334.11
2018-01-25T10:18:40.963Z,100329.80
2018-01-25T10:19:43.448Z,100336.38
2018-01-25T10:20:45.914Z,100340.31
2018-01-25T10:21:48.389Z,100338.89
2018-01-25T10:22:50.944Z,100340.16
2018-01-25T10:23:53.438Z,100337.41
2018-01-25T10:24:55.882Z,100333.25
2018-01-25T10:25:58.364Z,100333.31
2018-01-25T10:27:00.824Z,100333.19
2018-01-25T10:28:03.292Z,100325.41
2018-01-25T10:29:05.755Z,100323.47
2018-01-25T10:30:08.239Z,100323.52
2018-01-25T10:31:10.690Z,100322.33
2018-01-25T10:32:13.158Z,100314.56
2018-01-25T10:33:15.627Z,100317.33
2018-01-25T10:34:18.097Z,100312.00
2018-01-25T10:35:20.568Z,100308.52
2018-01-25T10:36:23.041Z,100305.67
2018-01-25T10:37:25.499Z,100306.33
2018-01-25T10:38:27.978Z,100305.36
2018-01-25T10:39:30.442Z,100303.25
2018-01-25T10:40:32.907Z,100303.75
2018-01-25T10:41:35.560Z,100304.61
2018-01-25T10:42:38.046Z,100307.05
2018-01-25T10:43:40.526Z,100302.34
2018-01-25T10:44:42.987Z,100300.52
2018-01-25T10:45:45.468Z,100305.31
2018-01-25T10:46:47.942Z,100299.73
2018-01-25T10:47:50.417Z,100301.62
2018-01-25T10:48:52.887Z,100300.37
2018-01-25T10:49:55.354Z,100299.86
2018-01-25T10:50:57.824Z,100306.55
2018-01-25T10:52:00.308Z,100298.80
2018-01-25T10:53:02.778Z,100297.30
2018-01-25T10:54:05.257Z,100296.82
2018-01-25T10:55:07.726Z,100297.27
2018-01-25T10:56:10.201Z,100296.12
2018-01-25T10:57:12.715Z,100292.98
2018-01-25T10:58:15.519Z,100295.09
2018-01-25T10:59:17.992Z,100292.59
2018-01-25T11:00:20.485Z,100290.22
2018-01-25T11:01:28.511Z,100284.50
2018-01-25T11:02:30.995Z,100284.37
2018-01-25T11:03:33.481Z,100291.94
2018-01-25T11:04:35.930Z,100289.73
2018-01-25T11:05:38.465Z,100282.95
2018-01-25T11:06:40.923Z,100284.08
2018-01-25T11:07:43.401Z,100282.88
2018-01-25T11:08:45.863Z,100281.17
2018-01-25T11:09:48.326Z,100279.78
2018-01-25T11:10:50.800Z,100278.91
2018-01-25T11:11:53.264Z,100278.94
2018-01-25T11:12:55.726Z,100286.42
2018-01-25T11:13:58.185Z,100279.42
2018-01-25T11:15:00.685Z,100273.94
2018-01-25T11:16:03.143Z,100276.67
2018-01-25T11:17:05.629Z,100271.59
2018-01-25T11:18:08.113Z,100276.69
2018-01-25T11:19:10.594Z,100277.29
2018-01-25T11:20:13.054Z,100270.03
2018-01-25T11:22:33.524Z,100273.28
2018-01-25T11:23:36.000Z,100269.13
2018-01-25T11:24:38.459Z,100268.91
2018-01-25T11:25:40.982Z,100264.63
2018-01-25T11:26:43.451Z,100268.76
2018-01-25T11:27:45.928Z,100270.62
2018-01-25T11:28:48.409Z,100264.18
2018-01-25T11:29:50.866Z,100264.46
2018-01-25T11:30:53.326Z,100262.56
2018-01-25T11:31:55.800Z,100262.50
2018-01-25T11:32:58.267Z,100257.97
2018-01-25T11:34:00.748Z,100261.44
2018-01-25T11:35:03.234Z,100259.04
2018-01-25T11:36:05.908Z,100265.86
2018-01-25T11:37:08.415Z,100249.28
2018-01-25T11:38:10.891Z,100246.96
2018-01-25T11:39:13.364Z,100246.80
2018-01-25T11:40:15.822Z,100244.42
2018-01-25T11:41:18.298Z,100240.25
2018-01-25T11:42:20.769Z,100240.75
2018-01-25T11:43:23.245Z,100235.72
2018-01-25T11:44:25.706Z,100231.30
2018-01-25T11:45:28.190Z,100235.61
2018-01-25T11:46:30.664Z,100229.65
2018-01-25T11:47:33.136Z,100231.49
2018-01-25T11:48:35.633Z,100227.05
2018-01-25T11:49:38.114Z,100226.29
2018-01-25T11:50:40.644Z,100226.64
2018-01-25T11:51:43.103Z,100225.36
2018-01-25T11:52:45.582Z,100226.13
2018-01-25T11:53:48.043Z,100221.97
2018-01-25T11:54:50.506Z,100218.71
2018-01-25T11:55:52.985Z,100220.41
2018-01-25T11:56:55.465Z,100212.07
2018-01-25T11:57:57.941Z,100217.59
2018-01-25T11:59:00.416Z,100213.78
2018-01-25T12:00:02.884Z,100221.77
2018-01-25T12:01:05.348Z,100219.09
2018-01-25T12:02:07.826Z,100217.36
2018-01-25T12:03:10.311Z,100215.30
2018-01-25T12:04:12.772Z,100216.52
2018-01-25T12:05:15.253Z,100213.34
2018-01-25T12:06:17.734Z,100211.64